sensor_id;sensor_type;location;lat;lon;timestamp;P1;durP1;ratioP1;P2;durP2;ratioP2
62151;SDS011;48139;47.474;19.034;2023-08-24T03:54:48;12.35;;;8.10;;
62151;SDS011;48139;47.474;19.034;2023-08-24T03:57:52;10.52;;;7.37;;
62151;SDS011;48139;47.474;19.034;2023-08-24T04:00:58;15.95;;;8.63;;
62151;SDS011;48139;47.474;19.034;2023-08-24T04:04:01;13.82;;;8.27;;
62151;SDS011;48139;47.474;19.034;2023-08-24T04:07:04;11.73;;;7.22;;
62151;SDS011;48139;47.474;19.034;2023-08-24T04:10:07;10.98;;;7.07;;
62151;SDS011;48139;47.474;19.034;2023-08-24T04:13:11;9.98;;;7.32;;
62151;SDS011;48139;47.474;19.034;2023-08-24T04:16:14;10.95;;;7.43;;
62151;SDS011;48139;47.474;19.034;2023-08-24T04:19:16;15.63;;;7.03;;
62151;SDS011;48139;47.474;19.034;2023-08-24T04:22:19;13.00;;;6.90;;
62151;SDS011;48139;47.474;19.034;2023-08-24T04:25:22;11.50;;;6.97;;
62151;SDS011;48139;47.474;19.034;2023-08-24T04:28:24;12.57;;;7.68;;
62151;SDS011;48139;47.474;19.034;2023-08-24T04:31:27;12.77;;;7.53;;
62151;SDS011;48139;47.474;19.034;2023-08-24T04:34:30;12.50;;;7.12;;
62151;SDS011;48139;47.474;19.034;2023-08-24T04:37:32;11.98;;;6.50;;
62151;SDS011;48139;47.474;19.034;2023-08-24T04:40:50;12.37;;;7.68;;
62151;SDS011;48139;47.474;19.034;2023-08-24T04:43:54;10.57;;;6.55;;
62151;SDS011;48139;47.474;19.034;2023-08-24T04:46:57;10.57;;;6.75;;
62151;SDS011;48139;47.474;19.034;2023-08-24T04:49:59;10.93;;;6.75;;
62151;SDS011;48139;47.474;19.034;2023-08-24T04:53:02;10.30;;;5.97;;
62151;SDS011;48139;47.474;19.034;2023-08-24T04:56:05;8.80;;;6.07;;
62151;SDS011;48139;47.474;19.034;2023-08-24T04:59:07;10.70;;;6.03;;
62151;SDS011;48139;47.474;19.034;2023-08-24T05:02:10;8.60;;;5.60;;
62151;SDS011;48139;47.474;19.034;2023-08-24T05:05:13;8.65;;;5.82;;
62151;SDS011;48139;47.474;19.034;2023-08-24T05:08:18;9.38;;;6.07;;
62151;SDS011;48139;47.474;19.034;2023-08-24T05:11:26;9.05;;;6.22;;
62151;SDS011;48139;47.474;19.034;2023-08-24T05:14:31;10.80;;;6.82;;
62151;SDS011;48139;47.474;19.034;2023-08-24T05:17:34;11.50;;;7.65;;
62151;SDS011;48139;47.474;19.034;2023-08-24T05:20:37;13.57;;;7.40;;
62151;SDS011;48139;47.474;19.034;2023-08-24T05:23:39;13.40;;;7.18;;
62151;SDS011;48139;47.474;19.034;2023-08-24T05:26:42;12.95;;;7.75;;
62151;SDS011;48139;47.474;19.034;2023-08-24T05:29:45;12.63;;;8.90;;
62151;SDS011;48139;47.474;19.034;2023-08-24T05:32:47;11.38;;;7.07;;
62151;SDS011;48139;47.474;19.034;2023-08-24T05:35:50;15.88;;;7.90;;
62151;SDS011;48139;47.474;19.034;2023-08-24T05:38:53;11.12;;;7.55;;
62151;SDS011;48139;47.474;19.034;2023-08-24T05:42:08;12.05;;;6.57;;
62151;SDS011;48139;47.474;19.034;2023-08-24T05:45:11;11.48;;;7.53;;
62151;SDS011;48139;47.474;19.034;2023-08-24T05:48:14;12.23;;;7.78;;
62151;SDS011;48139;47.474;19.034;2023-08-24T05:51:17;11.02;;;6.50;;
62151;SDS011;48139;47.474;19.034;2023-08-24T05:57:22;11.50;;;6.90;;
62151;SDS011;48139;47.474;19.034;2023-08-24T06:03:27;12.93;;;6.97;;
62151;SDS011;48139;47.474;19.034;2023-08-24T06:09:32;11.07;;;7.15;;
62151;SDS011;48139;47.474;19.034;2023-08-24T06:12:35;14.57;;;7.15;;
62151;SDS011;48139;47.474;19.034;2023-08-24T06:15:38;14.85;;;7.15;;
62151;SDS011;48139;47.474;19.034;2023-08-24T06:18:40;12.00;;;7.47;;
62151;SDS011;48139;47.474;19.034;2023-08-24T06:21:43;10.15;;;6.87;;
62151;SDS011;48139;47.474;19.034;2023-08-24T06:24:45;13.52;;;8.15;;
62151;SDS011;48139;47.474;19.034;2023-08-24T06:30:51;13.27;;;6.87;;
62151;SDS011;48139;47.474;19.034;2023-08-24T06:33:55;12.07;;;5.82;;
62151;SDS011;48139;47.474;19.034;2023-08-24T06:40:03;10.93;;;7.12;;
62151;SDS011;48139;47.474;19.034;2023-08-24T06:43:06;9.70;;;5.68;;
62151;SDS011;48139;47.474;19.034;2023-08-24T06:46:09;15.38;;;5.93;;
62151;SDS011;48139;47.474;19.034;2023-08-24T06:49:12;11.12;;;5.93;;
62151;SDS011;48139;47.474;19.034;2023-08-24T06:52:15;11.10;;;6.12;;
62151;SDS011;48139;47.474;19.034;2023-08-24T06:55:17;10.02;;;5.93;;
62151;SDS011;48139;47.474;19.034;2023-08-24T06:58:20;10.27;;;5.87;;
62151;SDS011;48139;47.474;19.034;2023-08-24T07:01:22;9.82;;;6.10;;
62151;SDS011;48139;47.474;19.034;2023-08-24T07:04:26;8.40;;;5.45;;
62151;SDS011;48139;47.474;19.034;2023-08-24T07:07:29;9.45;;;5.30;;
62151;SDS011;48139;47.474;19.034;2023-08-24T07:10:32;10.15;;;5.85;;
62151;SDS011;48139;47.474;19.034;2023-08-24T07:13:35;8.00;;;5.25;;
62151;SDS011;48139;47.474;19.034;2023-08-24T07:16:37;9.45;;;6.20;;
62151;SDS011;48139;47.474;19.034;2023-08-24T07:19:40;9.05;;;5.62;;
62151;SDS011;48139;47.474;19.034;2023-08-24T07:22:43;8.77;;;5.00;;
62151;SDS011;48139;47.474;19.034;2023-08-24T07:25:45;8.88;;;5.57;;
62151;SDS011;48139;47.474;19.034;2023-08-24T07:28:48;9.65;;;6.20;;
62151;SDS011;48139;47.474;19.034;2023-08-24T07:34:53;9.80;;;5.53;;
62151;SDS011;48139;47.474;19.034;2023-08-24T07:37:55;9.10;;;5.95;;
62151;SDS011;48139;47.474;19.034;2023-08-24T07:40:59;9.15;;;5.57;;
62151;SDS011;48139;47.474;19.034;2023-08-24T07:44:01;11.75;;;5.72;;
62151;SDS011;48139;47.474;19.034;2023-08-24T07:47:04;9.50;;;5.68;;
62151;SDS011;48139;47.474;19.034;2023-08-24T07:53:09;10.13;;;6.35;;
62151;SDS011;48139;47.474;19.034;2023-08-24T07:59:14;7.75;;;4.62;;
62151;SDS011;48139;47.474;19.034;2023-08-24T08:02:17;10.88;;;5.68;;
62151;SDS011;48139;47.474;19.034;2023-08-24T08:08:25;10.38;;;6.10;;
62151;SDS011;48139;47.474;19.034;2023-08-24T08:11:28;8.05;;;5.53;;
62151;SDS011;48139;47.474;19.034;2023-08-24T08:14:30;11.90;;;6.50;;
62151;SDS011;48139;47.474;19.034;2023-08-24T08:17:33;8.75;;;5.57;;
62151;SDS011;48139;47.474;19.034;2023-08-24T08:20:36;8.55;;;5.15;;
62151;SDS011;48139;47.474;19.034;2023-08-24T08:23:38;9.02;;;5.65;;
62151;SDS011;48139;47.474;19.034;2023-08-24T08:26:41;9.90;;;5.93;;
62151;SDS011;48139;47.474;19.034;2023-08-24T08:29:44;8.85;;;6.20;;
62151;SDS011;48139;47.474;19.034;2023-08-24T08:32:46;10.10;;;6.37;;
62151;SDS011;48139;47.474;19.034;2023-08-24T08:35:50;8.43;;;5.85;;
62151;SDS011;48139;47.474;19.034;2023-08-24T08:38:53;8.85;;;5.80;;
62151;SDS011;48139;47.474;19.034;2023-08-24T08:41:55;10.02;;;5.57;;
62151;SDS011;48139;47.474;19.034;2023-08-24T08:48:02;8.27;;;5.50;;
62151;SDS011;48139;47.474;19.034;2023-08-24T08:51:07;8.52;;;5.40;;
62151;SDS011;48139;47.474;19.034;2023-08-24T08:54:12;10.00;;;6.70;;
62151;SDS011;48139;47.474;19.034;2023-08-24T09:00:18;12.48;;;6.20;;
62151;SDS011;48139;47.474;19.034;2023-08-24T09:03:21;9.25;;;5.85;;
62151;SDS011;48139;47.474;19.034;2023-08-24T09:06:25;10.30;;;7.75;;
62151;SDS011;48139;47.474;19.034;2023-08-24T09:12:33;8.68;;;5.80;;
62151;SDS011;48139;47.474;19.034;2023-08-24T09:15:36;9.77;;;5.15;;
62151;SDS011;48139;47.474;19.034;2023-08-24T09:18:39;9.52;;;5.37;;
62151;SDS011;48139;47.474;19.034;2023-08-24T09:21:44;8.75;;;5.62;;
62151;SDS011;48139;47.474;19.034;2023-08-24T09:24:48;11.02;;;6.28;;
62151;SDS011;48139;47.474;19.034;2023-08-24T09:27:59;8.57;;;6.22;;
62151;SDS011;48139;47.474;19.034;2023-08-24T09:31:03;9.52;;;6.15;;
62151;SDS011;48139;47.474;19.034;2023-08-24T09:34:06;12.93;;;7.80;;
62151;SDS011;48139;47.474;19.034;2023-08-24T09:37:12;9.52;;;6.03;;
62151;SDS011;48139;47.474;19.034;2023-08-24T09:40:23;8.40;;;5.28;;
62151;SDS011;48139;47.474;19.034;2023-08-24T09:43:29;9.85;;;5.50;;
62151;SDS011;48139;47.474;19.034;2023-08-24T09:46:32;8.45;;;5.70;;
62151;SDS011;48139;47.474;19.034;2023-08-24T09:49:35;8.52;;;5.55;;
62151;SDS011;48139;47.474;19.034;2023-08-24T09:55:44;10.38;;;6.25;;
62151;SDS011;48139;47.474;19.034;2023-08-24T09:58:52;8.50;;;5.30;;
62151;SDS011;48139;47.474;19.034;2023-08-24T10:01:57;7.18;;;4.75;;
62151;SDS011;48139;47.474;19.034;2023-08-24T10:05:05;8.70;;;5.43;;
62151;SDS011;48139;47.474;19.034;2023-08-24T10:08:36;7.45;;;4.53;;
62151;SDS011;48139;47.474;19.034;2023-08-24T10:11:42;7.35;;;4.43;;
62151;SDS011;48139;47.474;19.034;2023-08-24T10:15:00;6.67;;;4.20;;
62151;SDS011;48139;47.474;19.034;2023-08-24T10:18:09;7.60;;;4.35;;
62151;SDS011;48139;47.474;19.034;2023-08-24T10:21:12;7.70;;;4.40;;
62151;SDS011;48139;47.474;19.034;2023-08-24T10:24:16;6.90;;;4.03;;
62151;SDS011;48139;47.474;19.034;2023-08-24T10:27:18;7.97;;;4.62;;
62151;SDS011;48139;47.474;19.034;2023-08-24T10:30:23;6.85;;;4.15;;
62151;SDS011;48139;47.474;19.034;2023-08-24T10:33:26;10.20;;;4.28;;
62151;SDS011;48139;47.474;19.034;2023-08-24T10:36:30;6.80;;;4.70;;
62151;SDS011;48139;47.474;19.034;2023-08-24T10:39:33;8.27;;;4.90;;
62151;SDS011;48139;47.474;19.034;2023-08-24T10:42:44;9.50;;;4.60;;
62151;SDS011;48139;47.474;19.034;2023-08-24T10:45:57;7.47;;;4.82;;
62151;SDS011;48139;47.474;19.034;2023-08-24T10:49:03;6.72;;;4.50;;
62151;SDS011;48139;47.474;19.034;2023-08-24T10:52:16;10.20;;;4.05;;
62151;SDS011;48139;47.474;19.034;2023-08-24T10:55:21;7.82;;;4.15;;
62151;SDS011;48139;47.474;19.034;2023-08-24T10:58:33;8.02;;;4.62;;
62151;SDS011;48139;47.474;19.034;2023-08-24T11:01:40;10.30;;;4.85;;
62151;SDS011;48139;47.474;19.034;2023-08-24T11:05:06;6.85;;;4.70;;
62151;SDS011;48139;47.474;19.034;2023-08-24T11:08:19;7.12;;;4.60;;
62151;SDS011;48139;47.474;19.034;2023-08-24T11:11:23;8.98;;;5.07;;
62151;SDS011;48139;47.474;19.034;2023-08-24T11:14:29;18.10;;;4.95;;
62151;SDS011;48139;47.474;19.034;2023-08-24T11:17:33;6.85;;;4.28;;
62151;SDS011;48139;47.474;19.034;2023-08-24T11:20:36;8.85;;;4.80;;
62151;SDS011;48139;47.474;19.034;2023-08-24T11:23:38;8.25;;;4.30;;
62151;SDS011;48139;47.474;19.034;2023-08-24T11:26:42;8.32;;;4.07;;
62151;SDS011;48139;47.474;19.034;2023-08-24T11:29:46;7.72;;;4.43;;
62151;SDS011;48139;47.474;19.034;2023-08-24T11:32:52;10.77;;;4.82;;
62151;SDS011;48139;47.474;19.034;2023-08-24T11:35:56;7.65;;;4.43;;
62151;SDS011;48139;47.474;19.034;2023-08-24T11:38:59;7.85;;;4.70;;
62151;SDS011;48139;47.474;19.034;2023-08-24T11:42:02;6.68;;;4.57;;
62151;SDS011;48139;47.474;19.034;2023-08-24T11:45:13;7.32;;;4.22;;
62151;SDS011;48139;47.474;19.034;2023-08-24T11:48:16;7.43;;;4.85;;
62151;SDS011;48139;47.474;19.034;2023-08-24T11:51:19;8.32;;;4.78;;
62151;SDS011;48139;47.474;19.034;2023-08-24T11:54:35;10.27;;;4.93;;
62151;SDS011;48139;47.474;19.034;2023-08-24T11:57:41;7.78;;;4.75;;
62151;SDS011;48139;47.474;19.034;2023-08-24T12:00:44;6.20;;;3.80;;
62151;SDS011;48139;47.474;19.034;2023-08-24T12:03:48;7.53;;;4.07;;
62151;SDS011;48139;47.474;19.034;2023-08-24T12:06:51;6.47;;;4.35;;
62151;SDS011;48139;47.474;19.034;2023-08-24T12:09:53;7.12;;;4.47;;
62151;SDS011;48139;47.474;19.034;2023-08-24T12:13:01;8.07;;;4.20;;
62151;SDS011;48139;47.474;19.034;2023-08-24T12:16:05;8.80;;;5.05;;
62151;SDS011;48139;47.474;19.034;2023-08-24T12:19:08;7.37;;;4.35;;
62151;SDS011;48139;47.474;19.034;2023-08-24T12:22:15;6.82;;;4.75;;
62151;SDS011;48139;47.474;19.034;2023-08-24T12:25:21;8.07;;;4.60;;
62151;SDS011;48139;47.474;19.034;2023-08-24T12:28:25;6.80;;;4.37;;
62151;SDS011;48139;47.474;19.034;2023-08-24T12:31:28;6.68;;;4.45;;
62151;SDS011;48139;47.474;19.034;2023-08-24T12:34:32;6.82;;;4.28;;
62151;SDS011;48139;47.474;19.034;2023-08-24T12:37:34;6.00;;;3.87;;
62151;SDS011;48139;47.474;19.034;2023-08-24T12:40:38;7.72;;;3.97;;
62151;SDS011;48139;47.474;19.034;2023-08-24T12:46:46;10.30;;;4.68;;
62151;SDS011;48139;47.474;19.034;2023-08-24T12:49:48;5.97;;;3.75;;
62151;SDS011;48139;47.474;19.034;2023-08-24T12:52:52;7.15;;;4.50;;
62151;SDS011;48139;47.474;19.034;2023-08-24T12:55:58;9.35;;;4.70;;
62151;SDS011;48139;47.474;19.034;2023-08-24T12:59:01;8.57;;;4.53;;
62151;SDS011;48139;47.474;19.034;2023-08-24T13:02:03;5.25;;;2.97;;
62151;SDS011;48139;47.474;19.034;2023-08-24T13:05:06;7.43;;;4.07;;
62151;SDS011;48139;47.474;19.034;2023-08-24T13:08:10;6.15;;;3.92;;
62151;SDS011;48139;47.474;19.034;2023-08-24T13:11:13;5.70;;;3.85;;
62151;SDS011;48139;47.474;19.034;2023-08-24T13:14:15;6.50;;;4.12;;
62151;SDS011;48139;47.474;19.034;2023-08-24T13:17:18;9.55;;;5.20;;
62151;SDS011;48139;47.474;19.034;2023-08-24T13:23:23;6.97;;;3.70;;
62151;SDS011;48139;47.474;19.034;2023-08-24T13:29:27;8.32;;;4.32;;
62151;SDS011;48139;47.474;19.034;2023-08-24T13:32:30;7.25;;;4.40;;
62151;SDS011;48139;47.474;19.034;2023-08-24T13:35:33;7.62;;;3.85;;
62151;SDS011;48139;47.474;19.034;2023-08-24T13:41:37;6.70;;;4.10;;
62151;SDS011;48139;47.474;19.034;2023-08-24T13:44:40;5.35;;;3.35;;
62151;SDS011;48139;47.474;19.034;2023-08-24T13:47:42;6.97;;;4.05;;
62151;SDS011;48139;47.474;19.034;2023-08-24T13:50:52;7.70;;;4.25;;
62151;SDS011;48139;47.474;19.034;2023-08-24T13:53:55;7.20;;;4.15;;
62151;SDS011;48139;47.474;19.034;2023-08-24T13:56:57;6.68;;;3.50;;
62151;SDS011;48139;47.474;19.034;2023-08-24T14:00:03;11.12;;;4.45;;
62151;SDS011;48139;47.474;19.034;2023-08-24T14:03:13;7.12;;;4.18;;
62151;SDS011;48139;47.474;19.034;2023-08-24T14:06:16;5.80;;;3.55;;
62151;SDS011;48139;47.474;19.034;2023-08-24T14:09:18;7.70;;;4.65;;
62151;SDS011;48139;47.474;19.034;2023-08-24T14:12:21;7.93;;;4.00;;
62151;SDS011;48139;47.474;19.034;2023-08-24T14:15:24;7.62;;;4.47;;
62151;SDS011;48139;47.474;19.034;2023-08-24T14:18:26;9.05;;;4.37;;
62151;SDS011;48139;47.474;19.034;2023-08-24T14:21:30;5.53;;;3.60;;
62151;SDS011;48139;47.474;19.034;2023-08-24T14:24:46;9.73;;;4.62;;
62151;SDS011;48139;47.474;19.034;2023-08-24T14:27:48;6.25;;;3.95;;
62151;SDS011;48139;47.474;19.034;2023-08-24T14:31:05;7.65;;;3.92;;
62151;SDS011;48139;47.474;19.034;2023-08-24T14:34:08;6.80;;;3.45;;
62151;SDS011;48139;47.474;19.034;2023-08-24T14:37:11;11.50;;;4.55;;
62151;SDS011;48139;47.474;19.034;2023-08-24T14:43:18;6.75;;;4.00;;
62151;SDS011;48139;47.474;19.034;2023-08-24T14:46:21;8.00;;;4.25;;
62151;SDS011;48139;47.474;19.034;2023-08-24T14:49:24;6.85;;;3.72;;
62151;SDS011;48139;47.474;19.034;2023-08-24T14:52:26;4.18;;;2.87;;
62151;SDS011;48139;47.474;19.034;2023-08-24T14:55:29;8.75;;;4.37;;
62151;SDS011;48139;47.474;19.034;2023-08-24T15:01:34;6.10;;;4.05;;
62151;SDS011;48139;47.474;19.034;2023-08-24T15:04:37;7.75;;;4.30;;
62151;SDS011;48139;47.474;19.034;2023-08-24T15:07:40;5.95;;;3.60;;
62151;SDS011;48139;47.474;19.034;2023-08-24T15:10:42;6.82;;;4.70;;
62151;SDS011;48139;47.474;19.034;2023-08-24T15:13:45;8.18;;;4.25;;
62151;SDS011;48139;47.474;19.034;2023-08-24T15:16:49;8.23;;;3.75;;
62151;SDS011;48139;47.474;19.034;2023-08-24T15:19:52;5.97;;;4.07;;
62151;SDS011;48139;47.474;19.034;2023-08-24T15:22:54;9.23;;;4.20;;
62151;SDS011;48139;47.474;19.034;2023-08-24T15:25:57;8.15;;;4.25;;
62151;SDS011;48139;47.474;19.034;2023-08-24T15:29:08;7.80;;;4.37;;
62151;SDS011;48139;47.474;19.034;2023-08-24T15:32:14;6.45;;;3.50;;
